createdAt,value
2018-08-03T00:01:22.461Z,100948.89
2018-08-03T00:03:53.075Z,100946.77
2018-08-03T00:06:23.753Z,100944.98
2018-08-03T00:08:54.434Z,100950.80
2018-08-03T00:11:25.128Z,100946.31
2018-08-03T00:13:55.801Z,100942.35
2018-08-03T00:16:26.507Z,100935.52
2018-08-03T00:18:57.190Z,100935.45
2018-08-03T00:21:28.034Z,100941.25
2018-08-03T00:23:58.812Z,100938.11
2018-08-03T00:26:29.503Z,100940.02
2018-08-03T00:29:00.257Z,100936.51
2018-08-03T00:31:30.918Z,100936.31
2018-08-03T00:34:01.637Z,100939.76
2018-08-03T00:36:32.327Z,100938.11
2018-08-03T00:39:03.045Z,100935.34
2018-08-03T00:41:33.724Z,100930.14
2018-08-03T00:44:04.480Z,100930.21
2018-08-03T00:46:35.153Z,100934.13
2018-08-03T00:49:05.842Z,100935.05
2018-08-03T00:51:36.567Z,100943.39
2018-08-03T00:54:07.326Z,100941.95
2018-08-03T00:56:37.962Z,100944.53
2018-08-03T00:59:08.300Z,100942.58
2018-08-03T01:01:38.918Z,100945.56
2018-08-03T01:04:09.639Z,100947.16
2018-08-03T01:06:40.340Z,100945.73
2018-08-03T01:09:12.679Z,100942.33
2018-08-03T01:11:43.328Z,100942.23
2018-08-03T01:14:14.029Z,100941.49
2018-08-03T01:16:44.668Z,100936.26
2018-08-03T01:19:15.851Z,100934.34
2018-08-03T01:21:46.551Z,100935.69
2018-08-03T01:24:17.239Z,100932.77
2018-08-03T01:26:47.863Z,100940.34
2018-08-03T01:29:18.534Z,100934.73
2018-08-03T01:31:49.191Z,100932.53
2018-08-03T01:34:19.930Z,100940.59
2018-08-03T01:36:50.615Z,100935.59
2018-08-03T01:39:21.239Z,100944.61
2018-08-03T01:41:51.897Z,100944.00
2018-08-03T01:44:22.548Z,100938.87
2018-08-03T01:46:53.227Z,100940.02
2018-08-03T01:49:23.852Z,100937.44
2018-08-03T01:51:54.531Z,100935.27
2018-08-03T01:54:25.190Z,100935.04
2018-08-03T01:56:55.874Z,100930.55
2018-08-03T01:59:26.564Z,100929.11
2018-08-03T02:01:57.212Z,100924.22
2018-08-03T02:04:27.843Z,100929.84
2018-08-03T02:06:58.554Z,100934.64
2018-08-03T02:09:29.211Z,100937.47
2018-08-03T02:11:59.876Z,100931.81
2018-08-03T02:14:30.595Z,100929.02
2018-08-03T02:17:01.512Z,100930.70
2018-08-03T02:19:32.164Z,100930.70
2018-08-03T02:22:02.796Z,100925.63
2018-08-03T02:24:33.445Z,100928.17
2018-08-03T02:27:04.101Z,100927.34
2018-08-03T02:29:34.786Z,100924.04
2018-08-03T02:32:05.439Z,100924.04
2018-08-03T02:34:36.144Z,100927.34
2018-08-03T02:37:06.808Z,100922.95
2018-08-03T02:39:37.452Z,100922.38
2018-08-03T02:42:08.242Z,100923.94
2018-08-03T02:44:38.889Z,100927.48
2018-08-03T02:47:09.521Z,100929.20
2018-08-03T02:49:40.223Z,100931.64
2018-08-03T02:52:11.391Z,100932.48
2018-08-03T02:54:42.040Z,100937.48
2018-08-03T02:57:12.698Z,100935.91
2018-08-03T02:59:43.360Z,100933.84
2018-08-03T03:02:14.040Z,100935.55
2018-08-03T03:04:44.713Z,100938.86
2018-08-03T03:07:15.414Z,100939.24
2018-08-03T03:09:46.104Z,100937.08
2018-08-03T03:12:16.732Z,100940.39
2018-08-03T03:14:47.404Z,100946.16
2018-08-03T03:17:32.482Z,100944.84
2018-08-03T03:20:03.256Z,100945.36
2018-08-03T03:22:33.906Z,100943.89
2018-08-03T03:25:04.655Z,100939.76
2018-08-03T03:27:35.327Z,100938.31
2018-08-03T03:30:07.715Z,100940.75
2018-08-03T03:32:38.458Z,100938.45
2018-08-03T03:35:09.204Z,100947.88
2018-08-03T03:37:39.824Z,100944.56
2018-08-03T03:40:10.489Z,100945.29
2018-08-03T03:42:41.102Z,100948.34
2018-08-03T03:45:11.759Z,100946.75
2018-08-03T03:47:42.398Z,100948.99
2018-08-03T03:50:13.062Z,100942.53
2018-08-03T03:52:43.715Z,100946.05
2018-08-03T03:55:14.452Z,100941.91
2018-08-03T03:57:45.129Z,100943.62
2018-08-03T04:00:15.800Z,100944.97
2018-08-03T04:02:46.495Z,100940.93
2018-08-03T04:05:17.192Z,100939.84
2018-08-03T04:07:47.904Z,100940.36
2018-08-03T04:10:18.532Z,100945.11
2018-08-03T04:12:49.208Z,100941.91
2018-08-03T04:15:19.887Z,100939.36
2018-08-03T04:17:50.576Z,100941.43
2018-08-03T04:20:21.246Z,100950.22
2018-08-03T04:22:51.944Z,100939.36
2018-08-03T04:25:22.652Z,100941.81
2018-08-03T04:27:53.326Z,100941.68
2018-08-03T04:30:23.995Z,100943.61
2018-08-03T04:32:54.603Z,100937.63
2018-08-03T04:35:25.241Z,100938.87
2018-08-03T04:37:55.915Z,100943.14
2018-08-03T04:40:26.557Z,100941.53
2018-08-03T04:42:57.218Z,100946.53
2018-08-03T04:45:27.820Z,100944.23
2018-08-03T04:47:58.492Z,100945.68
2018-08-03T04:50:29.342Z,100949.81
2018-08-03T04:53:00.019Z,100946.31
2018-08-03T04:55:30.666Z,100943.50
2018-08-03T04:58:01.387Z,100951.27
2018-08-03T05:00:32.114Z,100953.34
2018-08-03T05:03:02.870Z,100959.30
2018-08-03T05:05:33.523Z,100956.00
2018-08-03T05:08:04.281Z,100953.66
2018-08-03T05:10:34.965Z,100951.94
2018-08-03T05:13:05.680Z,100956.59
2018-08-03T05:15:36.401Z,100955.73
2018-08-03T05:18:07.115Z,100957.44
2018-08-03T05:20:37.826Z,100957.41
2018-08-03T05:23:08.448Z,100961.05
2018-08-03T05:25:39.160Z,100960.05
2018-08-03T05:28:09.854Z,100962.80
2018-08-03T05:30:40.539Z,100965.23
2018-08-03T05:33:11.484Z,100962.77
2018-08-03T05:35:42.163Z,100966.73
2018-08-03T05:40:42.226Z,100960.11
2018-08-03T05:43:12.949Z,100952.05
2018-08-03T05:45:43.560Z,100950.47
2018-08-03T05:48:14.270Z,100958.25
2018-08-03T05:50:44.944Z,100960.83
2018-08-03T05:53:15.609Z,100959.52
2018-08-03T05:55:46.256Z,100958.86
2018-08-03T05:58:17.291Z,100957.11
2018-08-03T06:00:48.035Z,100955.09
2018-08-03T06:03:18.911Z,100954.17
2018-08-03T06:05:49.597Z,100957.06
2018-08-03T06:08:20.350Z,100953.74
2018-08-03T06:10:51.004Z,100954.91
2018-08-03T06:13:21.646Z,100954.21
2018-08-03T06:15:52.312Z,100960.58
2018-08-03T06:18:22.999Z,100957.29
2018-08-03T06:20:53.671Z,100962.08
2018-08-03T06:23:24.307Z,100968.20
2018-08-03T06:25:55.020Z,100966.61
2018-08-03T06:28:25.728Z,100964.28
2018-08-03T06:30:56.409Z,100965.41
2018-08-03T06:33:27.047Z,100965.69
2018-08-03T06:35:57.879Z,100964.02
2018-08-03T06:38:28.546Z,100972.16
2018-08-03T06:40:59.232Z,100965.38
2018-08-03T06:43:29.890Z,100966.41
2018-08-03T06:46:00.554Z,100960.57
2018-08-03T06:48:31.257Z,100959.31
2018-08-03T06:51:01.906Z,100968.22
2018-08-03T06:53:32.565Z,100966.28
2018-08-03T06:56:03.378Z,100961.91
2018-08-03T06:58:34.036Z,100969.98
2018-08-03T07:01:04.810Z,100972.80
2018-08-03T07:03:35.480Z,100976.16
2018-08-03T07:06:06.199Z,100972.69
2018-08-03T07:08:36.866Z,100968.80
2018-08-03T07:11:07.867Z,100960.98
2018-08-03T07:13:38.519Z,100963.94
2018-08-03T07:16:09.190Z,100956.63
2018-08-03T07:18:39.852Z,100954.47
2018-08-03T07:21:11.310Z,100957.99
2018-08-03T07:23:42.021Z,100961.29
2018-08-03T07:26:12.775Z,100961.70
2018-08-03T07:28:43.463Z,100963.11
2018-08-03T07:31:14.089Z,100966.09
2018-08-03T07:33:44.873Z,100959.58
2018-08-03T07:36:15.607Z,100959.65
2018-08-03T07:38:46.316Z,100955.67
2018-08-03T07:41:17.018Z,100963.13
2018-08-03T07:43:47.678Z,100960.28
2018-08-03T07:46:18.317Z,100961.34
2018-08-03T07:48:48.946Z,100964.42
2018-08-03T07:51:19.613Z,100960.84
2018-08-03T07:53:50.237Z,100971.03
2018-08-03T07:56:20.891Z,100963.20
2018-08-03T07:58:51.844Z,100960.81
2018-08-03T08:01:22.515Z,100965.62
2018-08-03T08:03:53.740Z,100967.04
2018-08-03T08:06:24.422Z,100967.02
2018-08-03T08:08:55.136Z,100967.11
2018-08-03T08:11:25.840Z,100959.66
2018-08-03T08:13:56.576Z,100958.46
2018-08-03T08:16:27.287Z,100950.45
2018-08-03T08:18:58.034Z,100950.19
2018-08-03T08:21:28.940Z,100950.81
2018-08-03T08:23:59.594Z,100952.12
2018-08-03T08:26:30.269Z,100946.08
2018-08-03T08:29:00.968Z,100942.98
2018-08-03T08:31:31.720Z,100940.92
2018-08-03T08:34:02.397Z,100941.58
2018-08-03T08:36:33.072Z,100938.34
2018-08-03T08:39:34.773Z,100932.11
2018-08-03T08:42:05.514Z,100931.36
2018-08-03T08:44:36.292Z,100928.13
2018-08-03T08:47:07.102Z,100930.68
2018-08-03T08:49:37.837Z,100926.84
2018-08-03T08:52:08.710Z,100926.10
2018-08-03T08:54:39.437Z,100921.80
2018-08-03T08:57:10.065Z,100926.13
2018-08-03T08:59:40.868Z,100921.55
2018-08-03T09:02:11.496Z,100923.66
2018-08-03T09:04:42.172Z,100919.52
2018-08-03T09:07:12.816Z,100915.50
2018-08-03T09:09:43.502Z,100913.67
2018-08-03T09:12:14.180Z,100915.31
2018-08-03T09:14:44.869Z,100919.19
2018-08-03T09:17:15.564Z,100915.66
2018-08-03T09:19:46.249Z,100916.45
2018-08-03T09:22:16.928Z,100914.56
2018-08-03T09:24:47.588Z,100917.23
2018-08-03T09:27:18.248Z,100917.46
2018-08-03T09:29:48.908Z,100912.31
2018-08-03T09:32:19.598Z,100910.71
2018-08-03T09:34:50.225Z,100902.79
2018-08-03T09:37:20.860Z,100907.39
2018-08-03T09:39:51.694Z,100908.63
2018-08-03T09:42:22.362Z,100899.09
2018-08-03T09:44:53.130Z,100899.91
2018-08-03T09:47:23.839Z,100903.50
2018-08-03T09:49:54.571Z,100895.53
2018-08-03T09:52:25.261Z,100897.52
2018-08-03T09:54:55.967Z,100897.52
2018-08-03T09:57:26.622Z,100892.63
2018-08-03T09:59:57.353Z,100885.89
2018-08-03T10:02:28.045Z,100890.64
2018-08-03T10:04:58.693Z,100891.09
2018-08-03T10:07:29.421Z,100892.79
2018-08-03T10:10:00.129Z,100881.94
2018-08-03T10:12:30.799Z,100879.79
2018-08-03T10:15:01.454Z,100883.33
2018-08-03T10:17:32.140Z,100880.88
2018-08-03T10:20:02.843Z,100872.41
2018-08-03T10:22:33.589Z,100865.49
2018-08-03T10:25:04.207Z,100867.78
2018-08-03T10:27:34.877Z,100861.47
2018-08-03T10:30:07.012Z,100858.81
2018-08-03T10:32:38.596Z,100854.73
2018-08-03T10:35:09.326Z,100858.70
2018-08-03T10:37:40.015Z,100861.11
2018-08-03T10:40:10.762Z,100859.41
2018-08-03T10:42:41.462Z,100855.47
2018-08-03T10:45:12.168Z,100855.22
2018-08-03T10:47:42.863Z,100850.98
2018-08-03T10:50:14.589Z,100845.29
2018-08-03T10:52:45.804Z,100836.44
2018-08-03T10:55:16.482Z,100829.02
2018-08-03T10:57:47.153Z,100828.12
2018-08-03T11:00:28.435Z,100829.09
2018-08-03T11:02:59.576Z,100824.88
2018-08-03T11:05:30.618Z,100831.91
2018-08-03T11:08:01.259Z,100829.40
2018-08-03T11:10:32.004Z,100825.55
2018-08-03T11:13:02.710Z,100823.92
2018-08-03T11:15:33.360Z,100830.25
2018-08-03T11:18:04.047Z,100820.88
2018-08-03T11:20:34.701Z,100826.59
2018-08-03T11:23:05.436Z,100821.23
2018-08-03T11:25:36.283Z,100812.16
2018-08-03T11:28:07.027Z,100810.50
2018-08-03T11:30:37.740Z,100807.43
2018-08-03T11:33:08.395Z,100805.95
2018-08-03T11:35:39.044Z,100804.60
2018-08-03T11:38:09.672Z,100804.83
2018-08-03T11:40:41.512Z,100800.87
2018-08-03T11:43:12.167Z,100802.14
2018-08-03T11:45:42.848Z,100802.73
2018-08-03T11:48:13.494Z,100796.15
2018-08-03T11:50:44.391Z,100794.73
2018-08-03T11:53:15.052Z,100792.03
2018-08-03T11:55:46.293Z,100785.67
2018-08-03T11:58:16.892Z,100785.77
2018-08-03T12:00:47.767Z,100781.01
2018-08-03T12:03:18.379Z,100783.39
2018-08-03T12:05:49.017Z,100780.09
2018-08-03T12:08:19.632Z,100781.61
2018-08-03T12:10:50.386Z,100776.58
2018-08-03T12:13:21.076Z,100769.52
2018-08-03T12:15:51.751Z,100769.11
2018-08-03T12:18:22.617Z,100760.27
2018-08-03T12:20:53.465Z,100762.97
2018-08-03T12:23:24.187Z,100757.92
2018-08-03T12:25:54.764Z,100748.77
2018-08-03T12:28:25.475Z,100754.84
2018-08-03T12:30:56.160Z,100747.66
2018-08-03T12:33:26.824Z,100750.53
2018-08-03T12:35:57.527Z,100752.78
2018-08-03T12:38:28.182Z,100744.91
2018-08-03T12:40:58.940Z,100744.10
2018-08-03T12:43:30.076Z,100743.17
2018-08-03T12:46:03.767Z,100735.92
2018-08-03T12:48:34.515Z,100733.59
2018-08-03T12:51:05.203Z,100733.55
2018-08-03T12:53:36.366Z,100723.31
2018-08-03T12:56:07.133Z,100727.40
2018-08-03T12:58:37.812Z,100728.75
2018-08-03T13:01:08.515Z,100721.52
2018-08-03T13:03:39.172Z,100720.83
2018-08-03T13:06:09.776Z,100721.50
2018-08-03T13:08:40.478Z,100721.72
2018-08-03T13:11:11.116Z,100720.31
2018-08-03T13:13:41.803Z,100717.64
2018-08-03T13:16:12.428Z,100707.95
2018-08-03T13:18:43.104Z,100710.34
2018-08-03T13:21:30.533Z,100705.75
2018-08-03T13:24:02.046Z,100704.98
2018-08-03T13:26:32.794Z,100701.39
2018-08-03T13:29:03.616Z,100694.96
2018-08-03T13:31:34.358Z,100695.73
2018-08-03T13:34:05.090Z,100689.33
2018-08-03T13:36:35.765Z,100684.14
2018-08-03T13:39:09.330Z,100691.67
2018-08-03T13:41:39.955Z,100682.22
2018-08-03T13:44:10.672Z,100679.77
2018-08-03T13:46:41.385Z,100680.07
2018-08-03T13:49:12.008Z,100673.45
2018-08-03T13:51:42.671Z,100671.22
2018-08-03T13:54:13.352Z,100671.97
2018-08-03T13:56:44.059Z,100671.39
2018-08-03T13:59:14.696Z,100665.22
2018-08-03T14:02:02.085Z,100660.87
2018-08-03T14:04:32.728Z,100659.21
2018-08-03T14:07:03.446Z,100654.81
2018-08-03T14:09:34.074Z,100649.66
2018-08-03T14:12:04.845Z,100644.86
2018-08-03T14:14:35.506Z,100642.20
2018-08-03T14:17:06.522Z,100649.59
2018-08-03T14:19:37.155Z,100643.69
2018-08-03T14:22:07.879Z,100640.70
2018-08-03T14:24:38.506Z,100631.58
2018-08-03T14:27:09.335Z,100628.39
2018-08-03T14:29:39.991Z,100625.50
2018-08-03T14:32:10.782Z,100625.30
2018-08-03T14:34:41.442Z,100617.58
2018-08-03T14:37:12.083Z,100619.75
2018-08-03T14:39:42.720Z,100613.97
2018-08-03T14:42:13.087Z,100617.45
2018-08-03T14:44:43.584Z,100613.66
2018-08-03T14:47:14.281Z,100613.55
2018-08-03T14:49:44.900Z,100611.98
2018-08-03T14:52:15.595Z,100605.98
2018-08-03T14:54:46.275Z,100604.08
2018-08-03T14:57:16.934Z,100602.48
2018-08-03T14:59:47.574Z,100600.27
2018-08-03T15:02:18.254Z,100597.72
2018-08-03T15:04:48.918Z,100594.98
2018-08-03T15:07:19.576Z,100594.23
2018-08-03T15:09:50.206Z,100591.44
2018-08-03T15:12:20.869Z,100583.90
2018-08-03T15:14:51.538Z,100586.81
2018-08-03T15:17:22.262Z,100576.92
2018-08-03T15:19:52.951Z,100575.67
2018-08-03T15:22:24.786Z,100578.17
2018-08-03T15:24:55.714Z,100570.59
2018-08-03T15:27:26.402Z,100572.79
2018-08-03T15:29:57.072Z,100570.27
2018-08-03T15:32:27.676Z,100572.86
2018-08-03T15:34:58.237Z,100570.23
2018-08-03T15:37:28.911Z,100563.86
2018-08-03T15:39:59.553Z,100561.36
2018-08-03T15:42:30.258Z,100567.16
2018-08-03T15:45:00.938Z,100573.08
2018-08-03T15:47:31.576Z,100566.85
2018-08-03T15:50:02.277Z,100568.37
2018-08-03T15:52:32.895Z,100562.06
2018-08-03T15:55:03.672Z,100566.85
2018-08-03T15:57:34.373Z,100559.98
2018-08-03T16:00:06.932Z,100562.65
2018-08-03T16:02:37.615Z,100559.59
2018-08-03T16:05:09.325Z,100556.60
2018-08-03T16:07:39.961Z,100552.60
2018-08-03T16:10:10.696Z,100549.11
2018-08-03T16:12:41.358Z,100547.48
2018-08-03T16:15:12.052Z,100550.02
2018-08-03T16:17:42.723Z,100544.33
2018-08-03T16:20:13.415Z,100542.95
2018-08-03T16:22:44.140Z,100541.01
2018-08-03T16:25:14.924Z,100538.34
2018-08-03T16:27:45.636Z,100539.35
2018-08-03T16:30:16.321Z,100532.85
2018-08-03T16:32:47.031Z,100527.97
2018-08-03T16:35:17.988Z,100526.84
2018-08-03T16:37:48.604Z,100526.86
2018-08-03T16:40:19.295Z,100524.55
2018-08-03T16:42:49.991Z,100528.23
2018-08-03T16:45:20.661Z,100532.45
2018-08-03T16:47:51.332Z,100528.92
2018-08-03T16:50:22.009Z,100528.70
2018-08-03T16:52:52.843Z,100531.13
2018-08-03T16:55:23.516Z,100522.02
2018-08-03T16:57:54.170Z,100526.72
2018-08-03T17:00:24.564Z,100522.47
2018-08-03T17:02:55.112Z,100526.91
2018-08-03T17:05:25.818Z,100520.77
2018-08-03T17:07:56.500Z,100523.11
2018-08-03T17:10:27.160Z,100528.07
2018-08-03T17:12:57.959Z,100534.75
2018-08-03T17:15:28.626Z,100533.50
2018-08-03T17:17:59.301Z,100535.37
2018-08-03T17:20:29.930Z,100536.71
2018-08-03T17:23:00.607Z,100530.42
2018-08-03T17:25:31.248Z,100532.37
2018-08-03T17:28:02.020Z,100534.80
2018-08-03T17:30:32.666Z,100536.11
2018-08-03T17:33:03.360Z,100534.59
2018-08-03T17:35:34.010Z,100531.20
2018-08-03T17:38:04.783Z,100533.83
2018-08-03T17:40:35.451Z,100527.97
2018-08-03T17:43:06.216Z,100532.41
2018-08-03T17:45:36.922Z,100534.69
2018-08-03T17:48:07.252Z,100534.37
2018-08-03T17:50:37.939Z,100539.27
2018-08-03T17:53:08.643Z,100539.32
2018-08-03T17:55:39.285Z,100538.42
2018-08-03T17:58:09.960Z,100538.16
2018-08-03T18:00:40.589Z,100532.36
2018-08-03T18:03:11.239Z,100544.72
2018-08-03T18:05:41.907Z,100537.28
2018-08-03T18:08:12.704Z,100538.19
2018-08-03T18:10:43.436Z,100540.23
2018-08-03T18:13:14.240Z,100544.65
2018-08-03T18:15:44.960Z,100546.98
2018-08-03T18:18:15.641Z,100544.29
2018-08-03T18:20:46.288Z,100542.94
2018-08-03T18:23:16.987Z,100545.14
2018-08-03T18:25:47.697Z,100541.34
2018-08-03T18:28:18.347Z,100547.23
2018-08-03T18:30:49.077Z,100545.53
2018-08-03T18:33:19.727Z,100543.13
2018-08-03T18:35:50.437Z,100541.98
2018-08-03T18:38:21.120Z,100545.06
2018-08-03T18:40:51.837Z,100545.67
2018-08-03T18:43:22.508Z,100552.88
2018-08-03T18:45:53.197Z,100547.11
2018-08-03T18:48:23.839Z,100546.64
2018-08-03T18:50:54.642Z,100542.48
2018-08-03T18:53:25.774Z,100542.44
2018-08-03T18:55:56.401Z,100543.45
2018-08-03T18:58:27.109Z,100546.11
2018-08-03T19:00:57.830Z,100545.62
2018-08-03T19:03:28.581Z,100549.00
2018-08-03T19:05:59.302Z,100546.75
2018-08-03T19:08:30.151Z,100554.88
2018-08-03T19:11:01.007Z,100546.75
2018-08-03T19:13:31.935Z,100548.78
2018-08-03T19:16:02.572Z,100547.75
2018-08-03T19:18:33.962Z,100552.61
2018-08-03T19:21:04.761Z,100552.94
2018-08-03T19:23:35.485Z,100556.70
2018-08-03T19:26:06.264Z,100557.36
2018-08-03T19:28:36.904Z,100555.22
2018-08-03T19:31:07.613Z,100562.47
2018-08-03T19:33:37.949Z,100569.20
2018-08-03T19:36:08.546Z,100573.45
2018-08-03T19:38:40.023Z,100578.86
2018-08-03T19:41:10.895Z,100577.62
2018-08-03T19:43:41.602Z,100585.00
2018-08-03T19:46:12.335Z,100586.14
2018-08-03T19:48:43.032Z,100588.46
2018-08-03T19:51:13.716Z,100588.55
2018-08-03T19:53:44.473Z,100592.00
2018-08-03T19:56:15.204Z,100593.92
2018-08-03T19:58:45.975Z,100593.83
2018-08-03T20:01:16.616Z,100600.53
2018-08-03T20:03:47.599Z,100600.75
2018-08-03T20:06:18.015Z,100604.22
2018-08-03T20:08:48.571Z,100605.17
2018-08-03T20:11:19.282Z,100605.02
2018-08-03T20:13:50.032Z,100608.45
2018-08-03T20:16:21.062Z,100607.34
2018-08-03T20:18:51.726Z,100612.17
2018-08-03T20:21:22.367Z,100609.16
2018-08-03T20:23:53.042Z,100610.72
2018-08-03T20:26:23.730Z,100611.80
2018-08-03T20:28:54.364Z,100609.14
2018-08-03T20:31:25.040Z,100606.81
2018-08-03T20:33:55.727Z,100605.53
2018-08-03T20:36:26.503Z,100612.70
2018-08-03T20:38:57.191Z,100616.13
2018-08-03T20:41:28.001Z,100615.81
2018-08-03T20:43:58.779Z,100618.91
2018-08-03T20:46:29.424Z,100621.11
2018-08-03T20:49:00.098Z,100628.59
2018-08-03T20:51:30.936Z,100624.23
2018-08-03T20:54:01.678Z,100626.31
2018-08-03T20:56:32.336Z,100629.56
2018-08-03T20:59:03.091Z,100625.86
2018-08-03T21:01:33.745Z,100630.81
2018-08-03T21:04:04.448Z,100632.01
2018-08-03T21:06:35.078Z,100636.10
2018-08-03T21:09:10.219Z,100632.85
2018-08-03T21:11:40.982Z,100633.53
2018-08-03T21:14:11.725Z,100635.92
2018-08-03T21:16:42.500Z,100635.78
2018-08-03T21:19:13.146Z,100635.78
2018-08-03T21:21:43.808Z,100637.67
2018-08-03T21:24:14.470Z,100632.94
2018-08-03T21:26:45.135Z,100637.02
2018-08-03T21:29:15.791Z,100631.95
2018-08-03T21:31:46.476Z,100637.23
2018-08-03T21:34:17.180Z,100635.20
2018-08-03T21:36:47.849Z,100634.91
2018-08-03T21:39:18.499Z,100638.27
2018-08-03T21:41:49.169Z,100634.22
2018-08-03T21:44:20.240Z,100639.33
2018-08-03T21:46:50.883Z,100638.80
2018-08-03T21:49:21.581Z,100635.25
2018-08-03T21:51:52.206Z,100634.75
2018-08-03T21:54:22.858Z,100629.66
2018-08-03T21:56:53.503Z,100629.81
2018-08-03T21:59:24.156Z,100627.98
2018-08-03T22:01:54.839Z,100624.92
2018-08-03T22:04:25.462Z,100623.90
2018-08-03T22:06:56.150Z,100629.02
2018-08-03T22:09:26.776Z,100627.64
2018-08-03T22:11:57.493Z,100626.66
2018-08-03T22:14:28.170Z,100626.48
2018-08-03T22:16:58.887Z,100626.81
2018-08-03T22:19:29.619Z,100631.06
2018-08-03T22:22:00.372Z,100622.78
2018-08-03T22:24:31.001Z,100629.02
2018-08-03T22:27:01.782Z,100628.34
2018-08-03T22:29:32.385Z,100623.79
2018-08-03T22:32:03.064Z,100623.44
2018-08-03T22:34:33.697Z,100630.84
2018-08-03T22:37:04.376Z,100620.70
2018-08-03T22:39:35.033Z,100623.23
2018-08-03T22:42:05.759Z,100624.06
2018-08-03T22:44:36.435Z,100628.44
2018-08-03T22:47:07.168Z,100626.77
2018-08-03T22:49:37.831Z,100622.85
2018-08-03T22:52:08.558Z,100624.38
2018-08-03T22:54:39.189Z,100620.50
2018-08-03T22:57:09.861Z,100619.97
2018-08-03T22:59:40.511Z,100618.30
2018-08-03T23:02:11.222Z,100620.46
2018-08-03T23:04:41.886Z,100611.84
2018-08-03T23:07:12.540Z,100610.81
2018-08-03T23:09:43.270Z,100608.78
2018-08-03T23:12:13.943Z,100613.16
2018-08-03T23:14:44.673Z,100611.98
2018-08-03T23:17:15.289Z,100609.78
2018-08-03T23:19:45.970Z,100615.32
2018-08-03T23:22:16.593Z,100611.77
2018-08-03T23:24:47.305Z,100615.45
2018-08-03T23:27:17.952Z,100608.17
2018-08-03T23:29:48.674Z,100609.34
2018-08-03T23:32:19.340Z,100606.34
2018-08-03T23:34:50.079Z,100605.42
2018-08-03T23:37:20.739Z,100601.86
2018-08-03T23:39:51.524Z,100604.86
2018-08-03T23:42:22.219Z,100607.56
2018-08-03T23:44:52.920Z,100601.09
2018-08-03T23:47:23.629Z,100600.75
2018-08-03T23:49:54.330Z,100594.13
2018-08-03T23:52:25.037Z,100603.03
2018-08-03T23:54:55.822Z,100604.88
2018-08-03T23:57:26.552Z,100600.13
2018-08-03T23:59:57.291Z,100606.72
